createdAt,value
2023-12-03T00:01:03.748Z,99592.05
2023-12-03T00:06:25.773Z,99596.29
2023-12-03T00:11:27.881Z,99602.10
2023-12-03T00:16:29.739Z,99607.81
2023-12-03T00:21:31.638Z,99609.78
2023-12-03T00:26:33.552Z,99610.58
2023-12-03T00:31:35.575Z,99625.46
2023-12-03T00:36:37.616Z,99636.40
2023-12-03T00:41:39.746Z,99638.70
2023-12-03T00:46:41.619Z,99649.10
2023-12-03T00:51:43.609Z,99664.38
2023-12-03T00:56:45.967Z,99665.83
2023-12-03T01:01:47.961Z,99669.79
2023-12-03T01:06:50.430Z,99675.05
2023-12-03T01:11:56.590Z,99683.96
2023-12-03T01:16:58.557Z,99689.48
2023-12-03T01:22:00.384Z,99695.48
2023-12-03T01:27:02.332Z,99717.70
2023-12-03T01:32:04.587Z,99719.83
2023-12-03T01:37:06.534Z,99740.39
2023-12-03T01:42:08.668Z,99762.88
2023-12-03T01:47:10.632Z,99780.16
2023-12-03T01:52:12.545Z,99794.82
2023-12-03T01:57:15.636Z,99818.02
2023-12-03T02:02:17.639Z,99893.86
2023-12-03T02:07:19.718Z,99892.09
2023-12-03T02:12:21.706Z,99899.45
2023-12-03T02:17:23.613Z,99903.66
2023-12-03T02:22:25.599Z,99911.85
2023-12-03T02:27:27.544Z,99898.27
2023-12-03T02:32:29.599Z,99902.68
2023-12-03T02:37:31.526Z,99897.19
2023-12-03T02:42:33.468Z,99911.64
2023-12-03T02:47:35.374Z,99924.73
2023-12-03T02:52:37.293Z,99937.09
2023-12-03T02:57:39.328Z,99947.00
2023-12-03T03:02:41.407Z,99955.79
2023-12-03T03:07:43.241Z,99972.10
2023-12-03T03:12:45.253Z,99984.45
2023-12-03T03:17:47.316Z,99989.74
2023-12-03T03:22:49.880Z,99993.27
2023-12-03T03:27:51.834Z,99987.50
2023-12-03T03:32:54.339Z,99983.08
2023-12-03T03:37:56.625Z,99994.84
2023-12-03T03:42:58.527Z,100002.82
2023-12-03T03:48:00.420Z,100000.25
2023-12-03T03:53:02.316Z,100016.48
2023-12-03T03:58:04.294Z,100018.64
2023-12-03T04:03:06.328Z,100020.00
2023-12-03T04:08:08.446Z,100025.73
2023-12-03T04:13:10.349Z,100036.69
2023-12-03T04:18:12.498Z,100051.08
2023-12-03T04:23:14.650Z,100054.14
2023-12-03T04:28:16.559Z,100061.98
2023-12-03T04:33:18.432Z,100079.69
2023-12-03T04:38:20.459Z,100091.88
2023-12-03T04:43:22.341Z,100094.73
2023-12-03T04:48:24.295Z,100110.58
2023-12-03T04:53:26.328Z,100121.09
2023-12-03T04:58:28.265Z,100132.64
2023-12-03T05:03:30.245Z,100139.08
2023-12-03T05:08:32.396Z,100150.63
2023-12-03T05:13:34.376Z,100171.70
2023-12-03T05:18:36.336Z,100177.45
2023-12-03T05:23:38.407Z,100188.67
2023-12-03T05:28:40.357Z,100204.48
2023-12-03T05:33:42.776Z,100219.39
2023-12-03T05:38:44.777Z,100218.14
2023-12-03T05:43:46.842Z,100224.89
2023-12-03T05:48:48.816Z,100245.22
2023-12-03T05:53:50.798Z,100262.59
2023-12-03T05:58:52.693Z,100273.11
2023-12-03T06:03:54.637Z,100289.29
2023-12-03T06:08:56.620Z,100298.41
2023-12-03T06:13:59.019Z,100315.52
2023-12-03T06:19:01.046Z,100316.81
2023-12-03T06:24:03.228Z,100328.89
2023-12-03T06:29:05.120Z,100333.38
2023-12-03T06:34:07.707Z,100350.04
2023-12-03T06:39:09.870Z,100362.54
2023-12-03T06:44:11.722Z,100372.45
2023-12-03T06:49:13.652Z,100381.86
2023-12-03T06:54:15.563Z,100393.70
2023-12-03T06:59:17.479Z,100409.13
2023-12-03T07:04:19.423Z,100424.29
2023-12-03T07:09:37.264Z,100426.70
2023-12-03T07:14:41.923Z,100437.41
2023-12-03T07:19:44.609Z,100442.26
2023-12-03T07:24:46.957Z,100437.45
2023-12-03T07:29:53.250Z,100449.85
2023-12-03T07:34:55.297Z,100453.09
2023-12-03T07:39:57.428Z,100458.66
2023-12-03T07:44:59.352Z,100468.73
2023-12-03T07:50:01.609Z,100478.01
2023-12-03T07:55:03.862Z,100482.45
2023-12-03T08:00:07.002Z,100495.33
2023-12-03T08:05:14.502Z,100486.23
2023-12-03T08:10:16.496Z,100497.88
2023-12-03T08:15:19.163Z,100521.73
2023-12-03T08:20:21.183Z,100522.59
2023-12-03T08:25:23.399Z,100542.56
2023-12-03T08:30:26.468Z,100545.27
2023-12-03T08:35:28.567Z,100549.09
2023-12-03T08:40:31.475Z,100565.94
2023-12-03T08:45:33.915Z,100585.20
2023-12-03T08:50:35.987Z,100592.71
2023-12-03T08:55:38.302Z,100597.48
2023-12-03T09:00:43.329Z,100604.39
2023-12-03T09:05:45.325Z,100604.33
2023-12-03T09:10:48.291Z,100589.77
2023-12-03T09:15:51.630Z,100603.70
2023-12-03T09:20:56.668Z,100620.86
2023-12-03T09:25:58.610Z,100619.29
2023-12-03T09:31:00.574Z,100647.08
2023-12-03T09:36:03.652Z,100640.39
2023-12-03T09:41:10.707Z,100617.79
2023-12-03T09:46:15.812Z,100609.09
2023-12-03T09:51:19.051Z,100616.07
2023-12-03T09:56:23.820Z,100609.86
2023-12-03T10:01:28.570Z,100621.67
2023-12-03T10:06:30.599Z,100608.58
2023-12-03T10:11:41.388Z,100618.55
2023-12-03T10:16:49.792Z,100649.73
2023-12-03T10:21:52.059Z,100662.63
2023-12-03T10:27:00.134Z,100652.38
2023-12-03T10:32:02.931Z,100642.46
2023-12-03T10:37:07.782Z,100640.09
2023-12-03T10:42:10.800Z,100640.63
2023-12-03T10:47:13.580Z,100643.74
2023-12-03T10:52:15.561Z,100644.19
2023-12-03T10:57:17.593Z,100686.69
2023-12-03T11:02:19.559Z,100692.69
2023-12-03T11:07:21.724Z,100710.96
2023-12-03T11:12:23.746Z,100725.05
2023-12-03T11:17:32.343Z,100727.75
2023-12-03T11:22:58.167Z,100727.28
2023-12-03T11:28:01.481Z,100733.82
2023-12-03T11:33:12.667Z,100739.91
2023-12-03T11:38:19.848Z,100762.36
2023-12-03T11:43:26.736Z,100771.06
2023-12-03T11:48:31.253Z,100783.38
2023-12-03T11:53:44.627Z,100794.86
2023-12-03T11:58:50.790Z,100816.23
2023-12-03T12:03:55.107Z,100828.33
2023-12-03T12:08:58.998Z,100842.31
2023-12-03T12:14:02.210Z,100860.11
2023-12-03T12:19:07.653Z,100878.73
2023-12-03T12:24:09.794Z,100878.58
2023-12-03T12:29:12.745Z,100876.65
2023-12-03T12:34:16.380Z,100879.73
2023-12-03T12:39:28.530Z,100888.13
2023-12-03T12:44:46.958Z,100897.85
2023-12-03T12:49:53.804Z,100896.02
2023-12-03T12:55:03.618Z,100916.16
2023-12-03T13:00:13.942Z,100927.01
2023-12-03T13:05:17.263Z,100938.93
2023-12-03T13:10:20.450Z,100949.71
2023-12-03T13:15:27.467Z,100979.38
2023-12-03T13:20:31.377Z,100995.32
2023-12-03T13:25:33.291Z,101009.98
2023-12-03T13:30:38.025Z,101012.41
2023-12-03T13:35:42.556Z,101019.44
2023-12-03T13:40:46.890Z,101015.71
2023-12-03T13:45:51.336Z,101025.10
2023-12-03T13:50:53.273Z,101021.43
2023-12-03T13:55:56.843Z,101040.26
2023-12-03T14:01:01.337Z,101066.36
2023-12-03T14:06:06.676Z,101084.39
2023-12-03T14:11:08.618Z,101113.05
2023-12-03T14:16:10.852Z,101135.33
2023-12-03T14:21:15.605Z,101139.97
2023-12-03T14:26:17.842Z,101146.60
2023-12-03T14:31:20.241Z,101161.21
2023-12-03T14:36:26.760Z,101181.61
2023-12-03T14:41:33.210Z,101189.64
2023-12-03T14:46:38.335Z,101209.34
2023-12-03T14:51:43.602Z,101222.94
2023-12-03T14:56:45.782Z,101234.75
2023-12-03T15:01:47.864Z,101247.15
2023-12-03T15:06:57.422Z,101259.60
2023-12-03T15:12:01.964Z,101246.51
2023-12-03T15:17:06.794Z,101233.29
2023-12-03T15:22:09.965Z,101236.26
2023-12-03T15:27:16.336Z,101233.88
2023-12-03T15:32:18.503Z,101233.93
2023-12-03T15:37:20.484Z,101243.70
2023-12-03T15:42:24.083Z,101241.48
2023-12-03T15:47:29.815Z,101243.37
2023-12-03T15:52:31.757Z,101261.22
2023-12-03T15:57:33.772Z,101272.39
2023-12-03T16:02:35.909Z,101288.88
2023-12-03T16:07:39.980Z,101296.73
2023-12-03T16:12:42.036Z,101305.17
2023-12-03T16:17:47.397Z,101305.80
2023-12-03T16:22:50.640Z,101302.94
2023-12-03T16:27:55.711Z,101305.85
2023-12-03T16:32:59.213Z,101316.96
2023-12-03T16:38:04.422Z,101307.27
2023-12-03T16:43:06.573Z,101309.69
2023-12-03T16:48:09.082Z,101315.41
2023-12-03T16:53:13.839Z,101330.89
2023-12-03T16:58:18.414Z,101346.21
2023-12-03T17:03:22.500Z,101355.14
2023-12-03T17:08:24.525Z,101367.78
2023-12-03T17:13:26.867Z,101379.42
2023-12-03T17:18:29.666Z,101390.09
2023-12-03T17:23:31.984Z,101381.58
2023-12-03T17:28:34.549Z,101403.31
2023-12-03T17:33:36.735Z,101418.14
2023-12-03T17:38:39.119Z,101426.60
2023-12-03T17:43:42.403Z,101446.36
2023-12-03T17:48:47.839Z,101461.29
2023-12-03T17:53:52.817Z,101457.77
2023-12-03T17:58:55.143Z,101441.70
2023-12-03T18:03:57.637Z,101441.27
2023-12-03T18:08:59.607Z,101444.98
2023-12-03T18:14:05.617Z,101477.02
2023-12-03T18:19:10.147Z,101491.05
2023-12-03T18:24:12.680Z,101515.38
2023-12-03T18:29:14.695Z,101492.19
2023-12-03T18:34:16.598Z,101501.08
2023-12-03T18:39:19.451Z,101520.92
2023-12-03T18:44:29.619Z,101518.92
2023-12-03T18:49:34.505Z,101529.02
2023-12-03T18:54:41.466Z,101540.96
2023-12-03T18:59:43.944Z,101542.42
2023-12-03T19:04:48.420Z,101548.36
2023-12-03T19:09:50.487Z,101571.17
2023-12-03T19:14:52.645Z,101558.13
2023-12-03T19:19:57.603Z,101563.73
2023-12-03T19:25:02.473Z,101560.27
2023-12-03T19:30:07.472Z,101568.84
2023-12-03T19:35:12.144Z,101565.16
2023-12-03T19:40:14.271Z,101591.15
2023-12-03T19:45:16.334Z,101615.85
2023-12-03T19:50:18.491Z,101618.98
2023-12-03T19:55:20.381Z,101615.36
2023-12-03T20:00:22.326Z,101624.31
2023-12-03T20:05:24.426Z,101608.66
2023-12-03T20:10:28.856Z,101595.70
2023-12-03T20:15:40.741Z,101596.30
2023-12-03T20:20:52.084Z,101612.75
2023-12-03T20:25:54.054Z,101601.64
2023-12-03T20:30:56.101Z,101608.27
2023-12-03T20:35:59.116Z,101608.73
2023-12-03T20:41:02.852Z,101624.54
2023-12-03T20:46:05.398Z,101644.12
2023-12-03T20:51:09.324Z,101659.59
2023-12-03T20:56:11.409Z,101669.35
2023-12-03T21:01:13.400Z,101669.67
2023-12-03T21:06:17.693Z,101672.58
2023-12-03T21:11:22.453Z,101667.72
2023-12-03T21:16:24.831Z,101692.04
2023-12-03T21:21:27.240Z,101702.39
2023-12-03T21:26:29.182Z,101699.05
2023-12-03T21:31:31.236Z,101717.64
2023-12-03T21:36:37.642Z,101709.16
2023-12-03T21:41:40.169Z,101720.98
2023-12-03T21:46:42.048Z,101723.52
2023-12-03T21:51:44.179Z,101730.84
2023-12-03T21:56:46.006Z,101734.88
2023-12-03T22:01:47.972Z,101739.84
2023-12-03T22:06:49.899Z,101754.23
2023-12-03T22:11:51.784Z,101771.01
2023-12-03T22:16:53.639Z,101775.22
2023-12-03T22:21:55.816Z,101773.27
2023-12-03T22:26:57.677Z,101776.98
2023-12-03T22:31:59.740Z,101789.98
2023-12-03T22:37:01.696Z,101786.74
2023-12-03T22:42:04.367Z,101794.01
2023-12-03T22:47:06.563Z,101799.45
2023-12-03T22:52:08.873Z,101798.86
2023-12-03T22:57:11.094Z,101801.81
2023-12-03T23:02:12.992Z,101797.82
2023-12-03T23:07:14.863Z,101806.61
2023-12-03T23:12:16.864Z,101807.52
2023-12-03T23:17:18.754Z,101803.58
2023-12-03T23:22:20.796Z,101798.57
2023-12-03T23:27:22.657Z,101798.73
2023-12-03T23:32:24.581Z,101823.86
2023-12-03T23:37:26.563Z,101817.45
2023-12-03T23:42:29.226Z,101816.52
2023-12-03T23:47:31.164Z,101826.98
2023-12-03T23:52:33.172Z,101834.80
2023-12-03T23:57:36.129Z,101851.30
